sensor_id;sensor_type;location;lat;lon;timestamp;pressure;altitude;pressure_sealevel;temperature;humidity
65534;BME280;53640;55.838;37.184;2023-02-10T00:01:20;100197.09;;;-3.02;54.47
65534;BME280;53640;55.838;37.184;2023-02-10T00:03:47;100189.28;;;-3.17;54.47
65534;BME280;53640;55.838;37.184;2023-02-10T00:06:14;100183.06;;;-3.16;53.57
65534;BME280;53640;55.838;37.184;2023-02-10T00:08:42;100186.41;;;-3.14;53.57
65534;BME280;53640;55.838;37.184;2023-02-10T00:11:13;100144.44;;;-3.44;53.90
65534;BME280;53640;55.838;37.184;2023-02-10T00:13:42;100153.00;;;-3.40;53.87
65534;BME280;53640;55.838;37.184;2023-02-10T00:16:12;100133.66;;;-3.54;53.79
65534;BME280;53640;55.838;37.184;2023-02-10T00:18:39;100151.84;;;-3.36;53.58
65534;BME280;53640;55.838;37.184;2023-02-10T00:21:15;100165.16;;;-3.25;53.58
65534;BME280;53640;55.838;37.184;2023-02-10T00:23:43;100170.25;;;-3.22;53.84
65534;BME280;53640;55.838;37.184;2023-02-10T00:26:11;100151.84;;;-3.36;53.58
65534;BME280;53640;55.838;37.184;2023-02-10T00:28:42;100164.88;;;-3.33;53.35
65534;BME280;53640;55.838;37.184;2023-02-10T00:31:14;100141.50;;;-3.52;52.61
65534;BME280;53640;55.838;37.184;2023-02-10T00:33:41;100161.63;;;-3.49;53.43
65534;BME280;53640;55.838;37.184;2023-02-10T00:36:09;100103.34;;;-3.86;53.30
65534;BME280;53640;55.838;37.184;2023-02-10T00:38:37;100140.56;;;-3.64;53.60
65534;BME280;53640;55.838;37.184;2023-02-10T00:41:05;100148.50;;;-3.64;53.59
65534;BME280;53640;55.838;37.184;2023-02-10T00:43:32;100127.53;;;-3.67;53.81
65534;BME280;53640;55.838;37.184;2023-02-10T00:45:58;100116.31;;;-3.70;53.98
65534;BME280;53640;55.838;37.184;2023-02-10T00:48:25;100133.13;;;-3.59;54.25
65534;BME280;53640;55.838;37.184;2023-02-10T00:50:51;100066.00;;;-3.94;53.91
65534;BME280;53640;55.838;37.184;2023-02-10T00:53:18;100128.06;;;-3.62;53.87
65534;BME280;53640;55.838;37.184;2023-02-10T00:55:45;100121.50;;;-3.69;54.23
65534;BME280;53640;55.838;37.184;2023-02-10T00:58:12;100133.59;;;-3.78;54.24
65534;BME280;53640;55.838;37.184;2023-02-10T01:00:38;100086.72;;;-3.75;54.37
65534;BME280;53640;55.838;37.184;2023-02-10T01:03:07;100074.88;;;-3.83;54.18
65534;BME280;53640;55.838;37.184;2023-02-10T01:05:33;100091.13;;;-3.76;54.56
65534;BME280;53640;55.838;37.184;2023-02-10T01:08:00;100086.09;;;-3.79;54.43
65534;BME280;53640;55.838;37.184;2023-02-10T01:10:27;100100.47;;;-3.70;54.30
65534;BME280;53640;55.838;37.184;2023-02-10T01:12:54;100086.38;;;-3.71;53.70
65534;BME280;53640;55.838;37.184;2023-02-10T01:15:20;100049.19;;;-3.93;53.65
65534;BME280;53640;55.838;37.184;2023-02-10T01:17:46;100076.22;;;-3.77;54.47
65534;BME280;53640;55.838;37.184;2023-02-10T01:20:13;100059.00;;;-3.83;53.92
65534;BME280;53640;55.838;37.184;2023-02-10T01:22:40;100034.69;;;-4.00;54.71
65534;BME280;53640;55.838;37.184;2023-02-10T01:25:07;100055.38;;;-3.69;54.91
65534;BME280;53640;55.838;37.184;2023-02-10T01:27:33;100034.25;;;-3.82;55.18
65534;BME280;53640;55.838;37.184;2023-02-10T01:30:00;99996.63;;;-3.98;54.93
65534;BME280;53640;55.838;37.184;2023-02-10T01:32:26;100010.56;;;-3.83;54.95
65534;BME280;53640;55.838;37.184;2023-02-10T01:34:52;100032.72;;;-3.73;54.16
65534;BME280;53640;55.838;37.184;2023-02-10T01:37:19;100045.19;;;-3.62;54.84
65534;BME280;53640;55.838;37.184;2023-02-10T01:39:49;100051.66;;;-3.66;54.33
65534;BME280;53640;55.838;37.184;2023-02-10T01:42:16;100043.59;;;-3.65;55.13
65534;BME280;53640;55.838;37.184;2023-02-10T01:47:10;99990.56;;;-3.87;55.01
65534;BME280;53640;55.838;37.184;2023-02-10T01:49:40;99961.09;;;-4.07;53.73
65534;BME280;53640;55.838;37.184;2023-02-10T01:52:22;100013.84;;;-3.80;54.30
65534;BME280;53640;55.838;37.184;2023-02-10T01:54:55;99988.06;;;-4.01;54.49
65534;BME280;53640;55.838;37.184;2023-02-10T01:57:24;100006.75;;;-3.92;54.97
65534;BME280;53640;55.838;37.184;2023-02-10T01:59:51;99980.69;;;-4.09;55.37
65534;BME280;53640;55.838;37.184;2023-02-10T02:02:18;100019.75;;;-3.89;55.13
65534;BME280;53640;55.838;37.184;2023-02-10T02:04:54;99997.13;;;-3.93;55.00
65534;BME280;53640;55.838;37.184;2023-02-10T02:07:23;99976.13;;;-4.07;55.27
65534;BME280;53640;55.838;37.184;2023-02-10T02:09:59;99954.47;;;-4.25;55.28
65534;BME280;53640;55.838;37.184;2023-02-10T02:12:55;100011.53;;;-3.97;55.73
65534;BME280;53640;55.838;37.184;2023-02-10T02:15:27;100006.03;;;-4.07;55.72
65534;BME280;53640;55.838;37.184;2023-02-10T02:21:17;99970.19;;;-4.11;55.14
65534;BME280;53640;55.838;37.184;2023-02-10T02:32:34;99977.72;;;-4.17;55.84
65534;BME280;53640;55.838;37.184;2023-02-10T02:35:15;99952.03;;;-4.15;56.02
65534;BME280;53640;55.838;37.184;2023-02-10T02:37:46;99944.31;;;-4.18;55.76
65534;BME280;53640;55.838;37.184;2023-02-10T02:40:16;99944.94;;;-4.15;55.75
65534;BME280;53640;55.838;37.184;2023-02-10T02:42:42;99946.53;;;-4.12;55.60
65534;BME280;53640;55.838;37.184;2023-02-10T02:45:10;99937.63;;;-4.11;55.22
65534;BME280;53640;55.838;37.184;2023-02-10T02:48:10;99928.34;;;-4.17;55.67
65534;BME280;53640;55.838;37.184;2023-02-10T02:56:27;99923.28;;;-4.20;55.70
65534;BME280;53640;55.838;37.184;2023-02-10T03:01:51;99904.69;;;-4.31;56.35
65534;BME280;53640;55.838;37.184;2023-02-10T03:04:18;99916.53;;;-4.24;55.97
65534;BME280;53640;55.838;37.184;2023-02-10T03:06:44;99885.66;;;-4.36;56.47
65534;BME280;53640;55.838;37.184;2023-02-10T03:09:11;99887.13;;;-4.19;56.65
65534;BME280;53640;55.838;37.184;2023-02-10T03:11:38;99821.16;;;-4.58;56.59
65534;BME280;53640;55.838;37.184;2023-02-10T03:14:05;99848.91;;;-4.39;56.11
65534;BME280;53640;55.838;37.184;2023-02-10T03:16:34;99874.75;;;-4.19;56.26
65534;BME280;53640;55.838;37.184;2023-02-10T03:19:01;99834.00;;;-4.40;56.43
65534;BME280;53640;55.838;37.184;2023-02-10T03:21:28;99874.81;;;-4.08;56.58
65534;BME280;53640;55.838;37.184;2023-02-10T03:23:55;99860.47;;;-4.16;56.36
65534;BME280;53640;55.838;37.184;2023-02-10T03:26:21;99868.25;;;-4.02;56.37
65534;BME280;53640;55.838;37.184;2023-02-10T03:28:48;99849.91;;;-4.16;55.89
65534;BME280;53640;55.838;37.184;2023-02-10T03:31:15;99838.41;;;-4.28;56.37
65534;BME280;53640;55.838;37.184;2023-02-10T03:33:42;99833.22;;;-4.30;56.43
65534;BME280;53640;55.838;37.184;2023-02-10T03:36:11;99852.69;;;-4.31;55.99
65534;BME280;53640;55.838;37.184;2023-02-10T03:38:38;99824.81;;;-4.35;56.47
65534;BME280;53640;55.838;37.184;2023-02-10T03:41:04;99814.84;;;-4.31;56.82
65534;BME280;53640;55.838;37.184;2023-02-10T03:43:31;99761.75;;;-4.76;56.43
65534;BME280;53640;55.838;37.184;2023-02-10T03:46:02;99836.72;;;-4.29;56.10
65534;BME280;53640;55.838;37.184;2023-02-10T03:48:29;99767.75;;;-4.74;56.91
65534;BME280;53640;55.838;37.184;2023-02-10T03:51:00;99789.13;;;-4.53;56.98
65534;BME280;53640;55.838;37.184;2023-02-10T03:53:28;99749.94;;;-4.83;56.74
65534;BME280;53640;55.838;37.184;2023-02-10T03:55:55;99797.56;;;-4.48;56.84
65534;BME280;53640;55.838;37.184;2023-02-10T03:58:22;99738.75;;;-4.87;56.92
65534;BME280;53640;55.838;37.184;2023-02-10T04:00:51;99779.84;;;-4.59;56.79
65534;BME280;53640;55.838;37.184;2023-02-10T04:03:17;99821.25;;;-4.46;56.89
65534;BME280;53640;55.838;37.184;2023-02-10T04:05:46;99794.09;;;-4.48;56.71
65534;BME280;53640;55.838;37.184;2023-02-10T04:08:13;99763.84;;;-4.68;56.40
65534;BME280;53640;55.838;37.184;2023-02-10T04:10:39;99778.63;;;-4.66;56.91
65534;BME280;53640;55.838;37.184;2023-02-10T04:13:07;99799.75;;;-4.66;56.89
65534;BME280;53640;55.838;37.184;2023-02-10T04:15:34;99784.63;;;-4.64;56.87
65534;BME280;53640;55.838;37.184;2023-02-10T04:18:00;99764.66;;;-4.68;57.08
65534;BME280;53640;55.838;37.184;2023-02-10T04:20:27;99736.72;;;-4.83;57.22
65534;BME280;53640;55.838;37.184;2023-02-10T04:22:55;99781.34;;;-4.67;56.98
65534;BME280;53640;55.838;37.184;2023-02-10T04:25:22;99751.09;;;-4.87;57.35
65534;BME280;53640;55.838;37.184;2023-02-10T04:27:49;99765.50;;;-4.67;56.95
65534;BME280;53640;55.838;37.184;2023-02-10T04:30:15;99761.13;;;-4.80;56.86
65534;BME280;53640;55.838;37.184;2023-02-10T04:32:42;99773.97;;;-4.75;57.37
65534;BME280;53640;55.838;37.184;2023-02-10T04:35:08;99712.13;;;-4.96;57.30
65534;BME280;53640;55.838;37.184;2023-02-10T04:37:34;99754.25;;;-4.82;57.46
65534;BME280;53640;55.838;37.184;2023-02-10T04:40:01;99766.19;;;-4.89;57.51
65534;BME280;53640;55.838;37.184;2023-02-10T04:42:27;99770.00;;;-4.81;57.53
65534;BME280;53640;55.838;37.184;2023-02-10T04:44:58;99739.63;;;-5.12;57.77
65534;BME280;53640;55.838;37.184;2023-02-10T04:47:27;99724.41;;;-4.95;57.26
65534;BME280;53640;55.838;37.184;2023-02-10T04:49:55;99735.81;;;-4.95;57.50
65534;BME280;53640;55.838;37.184;2023-02-10T04:52:21;99761.97;;;-4.55;57.36
65534;BME280;53640;55.838;37.184;2023-02-10T04:54:49;99747.56;;;-4.62;57.38
65534;BME280;53640;55.838;37.184;2023-02-10T04:57:15;99742.81;;;-4.70;57.25
65534;BME280;53640;55.838;37.184;2023-02-10T04:59:41;99770.44;;;-4.50;57.15
65534;BME280;53640;55.838;37.184;2023-02-10T05:02:07;99759.50;;;-4.69;57.35
65534;BME280;53640;55.838;37.184;2023-02-10T05:04:34;99788.63;;;-4.58;56.93
65534;BME280;53640;55.838;37.184;2023-02-10T05:07:00;99761.16;;;-4.92;57.39
65534;BME280;53640;55.838;37.184;2023-02-10T05:09:27;99725.53;;;-4.87;57.12
65534;BME280;53640;55.838;37.184;2023-02-10T05:11:54;99747.41;;;-4.85;57.48
65534;BME280;53640;55.838;37.184;2023-02-10T05:14:23;99735.41;;;-5.02;57.57
65534;BME280;53640;55.838;37.184;2023-02-10T05:16:51;99754.69;;;-4.88;57.63
65534;BME280;53640;55.838;37.184;2023-02-10T05:19:18;99633.63;;;-5.42;57.51
65534;BME280;53640;55.838;37.184;2023-02-10T05:21:45;99763.63;;;-4.78;57.10
65534;BME280;53640;55.838;37.184;2023-02-10T05:24:28;99680.78;;;-5.25;57.26
65534;BME280;53640;55.838;37.184;2023-02-10T05:26:54;99622.72;;;-5.75;57.90
65534;BME280;53640;55.838;37.184;2023-02-10T05:29:21;99722.94;;;-4.99;57.96
65534;BME280;53640;55.838;37.184;2023-02-10T05:31:48;99740.66;;;-5.02;58.00
65534;BME280;53640;55.838;37.184;2023-02-10T05:34:15;99708.00;;;-5.25;57.61
65534;BME280;53640;55.838;37.184;2023-02-10T05:36:41;99713.41;;;-5.26;58.12
65534;BME280;53640;55.838;37.184;2023-02-10T05:39:10;99706.09;;;-5.22;58.10
65534;BME280;53640;55.838;37.184;2023-02-10T05:41:52;99733.19;;;-5.08;58.16
65534;BME280;53640;55.838;37.184;2023-02-10T05:44:47;99655.94;;;-5.59;58.11
65534;BME280;53640;55.838;37.184;2023-02-10T05:47:13;99694.94;;;-5.26;58.30
65534;BME280;53640;55.838;37.184;2023-02-10T05:49:40;99692.47;;;-5.16;58.08
65534;BME280;53640;55.838;37.184;2023-02-10T05:52:06;99706.47;;;-5.03;58.22
65534;BME280;53640;55.838;37.184;2023-02-10T05:54:33;99713.34;;;-5.13;57.92
65534;BME280;53640;55.838;37.184;2023-02-10T05:56:59;99696.56;;;-5.12;57.93
65534;BME280;53640;55.838;37.184;2023-02-10T05:59:25;99657.94;;;-5.13;57.44
65534;BME280;53640;55.838;37.184;2023-02-10T06:01:52;99700.66;;;-4.95;57.81
65534;BME280;53640;55.838;37.184;2023-02-10T06:04:18;99684.75;;;-5.07;57.60
65534;BME280;53640;55.838;37.184;2023-02-10T06:06:45;99691.44;;;-4.90;57.53
65534;BME280;53640;55.838;37.184;2023-02-10T06:09:13;99698.94;;;-4.96;57.86
65534;BME280;53640;55.838;37.184;2023-02-10T06:11:39;99673.50;;;-4.97;57.71
65534;BME280;53640;55.838;37.184;2023-02-10T06:14:06;99663.69;;;-4.95;56.78
65534;BME280;53640;55.838;37.184;2023-02-10T06:16:33;99666.00;;;-4.67;57.51
65534;BME280;53640;55.838;37.184;2023-02-10T06:18:59;99620.50;;;-4.94;56.82
65534;BME280;53640;55.838;37.184;2023-02-10T06:21:26;99639.03;;;-4.83;56.49
65534;BME280;53640;55.838;37.184;2023-02-10T06:23:52;99663.06;;;-4.75;56.58
65534;BME280;53640;55.838;37.184;2023-02-10T06:26:19;99610.06;;;-4.96;56.16
65534;BME280;53640;55.838;37.184;2023-02-10T06:28:45;99634.25;;;-4.78;56.10
65534;BME280;53640;55.838;37.184;2023-02-10T06:31:11;99649.88;;;-4.75;56.70
65534;BME280;53640;55.838;37.184;2023-02-10T06:33:38;99630.09;;;-4.69;56.40
65534;BME280;53640;55.838;37.184;2023-02-10T06:36:06;99603.22;;;-4.98;55.91
65534;BME280;53640;55.838;37.184;2023-02-10T06:38:36;99601.53;;;-4.64;56.60
65534;BME280;53640;55.838;37.184;2023-02-10T06:41:04;99616.34;;;-4.62;55.94
65534;BME280;53640;55.838;37.184;2023-02-10T06:43:32;99558.69;;;-4.68;55.70
65534;BME280;53640;55.838;37.184;2023-02-10T06:45:58;99565.47;;;-4.41;55.64
65534;BME280;53640;55.838;37.184;2023-02-10T06:48:25;99591.31;;;-4.34;54.31
65534;BME280;53640;55.838;37.184;2023-02-10T06:50:52;99525.97;;;-4.43;54.94
65534;BME280;53640;55.838;37.184;2023-02-10T06:53:19;99567.19;;;-4.18;54.40
65534;BME280;53640;55.838;37.184;2023-02-10T06:55:46;99545.09;;;-4.28;53.89
65534;BME280;53640;55.838;37.184;2023-02-10T06:58:12;99569.34;;;-4.23;54.22
65534;BME280;53640;55.838;37.184;2023-02-10T07:00:39;99591.09;;;-4.19;54.13
65534;BME280;53640;55.838;37.184;2023-02-10T07:03:06;99551.69;;;-4.11;53.72
65534;BME280;53640;55.838;37.184;2023-02-10T07:05:33;99525.63;;;-4.27;53.83
65534;BME280;53640;55.838;37.184;2023-02-10T07:08:02;99539.22;;;-4.09;53.45
65534;BME280;53640;55.838;37.184;2023-02-10T07:10:30;99524.44;;;-4.12;53.35
65534;BME280;53640;55.838;37.184;2023-02-10T07:12:59;99501.25;;;-4.19;53.32
65534;BME280;53640;55.838;37.184;2023-02-10T07:15:26;99458.94;;;-4.64;52.75
65534;BME280;53640;55.838;37.184;2023-02-10T07:17:57;99389.19;;;-4.84;53.00
65534;BME280;53640;55.838;37.184;2023-02-10T07:20:26;99339.72;;;-5.05;53.57
65534;BME280;53640;55.838;37.184;2023-02-10T07:22:53;99427.72;;;-4.70;52.82
65534;BME280;53640;55.838;37.184;2023-02-10T07:25:21;99433.38;;;-4.64;53.26
65534;BME280;53640;55.838;37.184;2023-02-10T07:27:47;99393.13;;;-4.79;52.94
65534;BME280;53640;55.838;37.184;2023-02-10T07:30:20;99430.03;;;-4.55;53.11
65534;BME280;53640;55.838;37.184;2023-02-10T07:32:46;99443.47;;;-4.35;52.90
65534;BME280;53640;55.838;37.184;2023-02-10T07:35:13;99497.75;;;-3.86;52.64
65534;BME280;53640;55.838;37.184;2023-02-10T07:37:40;99492.91;;;-3.81;53.03
65534;BME280;53640;55.838;37.184;2023-02-10T07:40:07;99425.88;;;-4.03;53.22
65534;BME280;53640;55.838;37.184;2023-02-10T07:42:34;99476.03;;;-3.58;53.03
65534;BME280;53640;55.838;37.184;2023-02-10T07:45:18;99417.94;;;-4.03;52.30
65534;BME280;53640;55.838;37.184;2023-02-10T07:47:46;99478.09;;;-3.61;51.64
65534;BME280;53640;55.838;37.184;2023-02-10T07:50:44;99483.28;;;-3.60;51.67
65534;BME280;53640;55.838;37.184;2023-02-10T07:53:57;99475.78;;;-3.55;52.24
65534;BME280;53640;55.838;37.184;2023-02-10T07:56:45;99371.84;;;-4.10;51.32
65534;BME280;53640;55.838;37.184;2023-02-10T07:59:36;99406.81;;;-3.63;49.97
65534;BME280;53640;55.838;37.184;2023-02-10T08:02:09;99477.00;;;-3.15;51.51
65534;BME280;53640;55.838;37.184;2023-02-10T08:04:36;99371.44;;;-3.62;50.96
65534;BME280;53640;55.838;37.184;2023-02-10T08:07:03;99464.59;;;-2.73;49.40
65534;BME280;53640;55.838;37.184;2023-02-10T08:09:29;99455.25;;;-2.46;48.88
65534;BME280;53640;55.838;37.184;2023-02-10T08:11:55;99462.63;;;-2.29;48.54
65534;BME280;53640;55.838;37.184;2023-02-10T08:14:22;99433.34;;;-2.48;48.63
65534;BME280;53640;55.838;37.184;2023-02-10T08:16:59;99446.97;;;-2.32;47.27
65534;BME280;53640;55.838;37.184;2023-02-10T08:19:33;99434.38;;;-1.99;46.89
65534;BME280;53640;55.838;37.184;2023-02-10T08:22:05;99409.84;;;-2.32;46.53
65534;BME280;53640;55.838;37.184;2023-02-10T08:24:33;99349.06;;;-2.14;45.70
65534;BME280;53640;55.838;37.184;2023-02-10T08:26:59;99405.34;;;-2.01;45.72
65534;BME280;53640;55.838;37.184;2023-02-10T08:29:26;99379.31;;;-2.26;45.50
65534;BME280;53640;55.838;37.184;2023-02-10T08:31:53;99344.94;;;-2.47;45.74
65534;BME280;53640;55.838;37.184;2023-02-10T08:34:24;99328.19;;;-2.48;45.84
65534;BME280;53640;55.838;37.184;2023-02-10T08:36:51;99328.94;;;-2.36;45.93
65534;BME280;53640;55.838;37.184;2023-02-10T08:45:09;99430.19;;;-2.42;44.54
65534;BME280;53640;55.838;37.184;2023-02-10T08:47:36;99394.06;;;-2.34;45.08
65534;BME280;53640;55.838;37.184;2023-02-10T08:50:03;99396.16;;;-2.37;45.06
65534;BME280;53640;55.838;37.184;2023-02-10T08:52:30;99351.84;;;-2.66;45.15
65534;BME280;53640;55.838;37.184;2023-02-10T08:54:57;99371.28;;;-2.46;45.80
65534;BME280;53640;55.838;37.184;2023-02-10T08:57:25;99367.81;;;-2.46;45.26
65534;BME280;53640;55.838;37.184;2023-02-10T08:59:52;99340.44;;;-2.57;44.67
65534;BME280;53640;55.838;37.184;2023-02-10T09:02:18;99332.78;;;-2.50;45.09
65534;BME280;53640;55.838;37.184;2023-02-10T09:04:45;99328.31;;;-2.59;44.89
65534;BME280;53640;55.838;37.184;2023-02-10T09:07:11;99376.56;;;-2.55;44.49
65534;BME280;53640;55.838;37.184;2023-02-10T09:09:41;99341.88;;;-2.43;45.17
65534;BME280;53640;55.838;37.184;2023-02-10T09:12:09;99301.38;;;-2.95;44.94
65534;BME280;53640;55.838;37.184;2023-02-10T09:14:40;99284.81;;;-2.87;44.86
65534;BME280;53640;55.838;37.184;2023-02-10T09:17:07;99332.81;;;-2.81;44.13
65534;BME280;53640;55.838;37.184;2023-02-10T09:19:35;99298.63;;;-2.84;44.49
65534;BME280;53640;55.838;37.184;2023-02-10T09:22:03;99297.38;;;-2.89;44.87
65534;BME280;53640;55.838;37.184;2023-02-10T09:24:31;99291.88;;;-2.97;45.22
65534;BME280;53640;55.838;37.184;2023-02-10T09:26:57;99339.91;;;-2.81;45.35
65534;BME280;53640;55.838;37.184;2023-02-10T09:29:24;99325.44;;;-2.77;45.28
65534;BME280;53640;55.838;37.184;2023-02-10T09:31:51;99314.03;;;-2.98;45.46
65534;BME280;53640;55.838;37.184;2023-02-10T09:34:17;99370.09;;;-2.93;45.07
65534;BME280;53640;55.838;37.184;2023-02-10T09:36:44;99305.13;;;-2.97;45.09
65534;BME280;53640;55.838;37.184;2023-02-10T09:39:11;99321.91;;;-2.87;45.62
65534;BME280;53640;55.838;37.184;2023-02-10T09:41:46;99316.66;;;-2.77;45.32
65534;BME280;53640;55.838;37.184;2023-02-10T09:44:21;99271.00;;;-3.00;45.74
65534;BME280;53640;55.838;37.184;2023-02-10T09:55:40;99290.13;;;-2.37;46.05
65534;BME280;53640;55.838;37.184;2023-02-10T10:01:10;99296.28;;;-2.37;43.63
65534;BME280;53640;55.838;37.184;2023-02-10T10:06:28;99273.81;;;-2.33;44.75
65534;BME280;53640;55.838;37.184;2023-02-10T10:09:21;99264.59;;;-2.38;44.53
65534;BME280;53640;55.838;37.184;2023-02-10T10:11:53;99286.63;;;-2.38;44.58
65534;BME280;53640;55.838;37.184;2023-02-10T10:14:40;99275.16;;;-2.58;43.41
65534;BME280;53640;55.838;37.184;2023-02-10T10:20:02;99252.06;;;-2.36;43.40
65534;BME280;53640;55.838;37.184;2023-02-10T10:22:52;99134.53;;;-3.05;43.92
65534;BME280;53640;55.838;37.184;2023-02-10T10:25:35;99249.78;;;-2.41;43.71
65534;BME280;53640;55.838;37.184;2023-02-10T10:31:33;99257.72;;;-2.60;43.04
65534;BME280;53640;55.838;37.184;2023-02-10T10:34:08;99184.78;;;-2.74;44.56
65534;BME280;53640;55.838;37.184;2023-02-10T10:36:46;99199.41;;;-2.79;43.16
65534;BME280;53640;55.838;37.184;2023-02-10T10:39:35;99225.81;;;-2.39;43.30
65534;BME280;53640;55.838;37.184;2023-02-10T10:45:11;99196.25;;;-2.44;43.00
65534;BME280;53640;55.838;37.184;2023-02-10T10:47:48;99190.38;;;-2.58;42.10
65534;BME280;53640;55.838;37.184;2023-02-10T10:50:20;99158.81;;;-2.90;42.39
65534;BME280;53640;55.838;37.184;2023-02-10T10:52:51;99187.31;;;-2.63;43.29
65534;BME280;53640;55.838;37.184;2023-02-10T10:55:41;99122.28;;;-2.96;43.64
65534;BME280;53640;55.838;37.184;2023-02-10T10:58:31;99213.50;;;-2.60;42.49
65534;BME280;53640;55.838;37.184;2023-02-10T11:01:00;99158.56;;;-2.77;42.18
65534;BME280;53640;55.838;37.184;2023-02-10T11:03:28;99131.34;;;-2.98;42.54
65534;BME280;53640;55.838;37.184;2023-02-10T11:06:16;99148.78;;;-2.96;42.13
65534;BME280;53640;55.838;37.184;2023-02-10T11:08:53;99110.16;;;-2.98;42.77
65534;BME280;53640;55.838;37.184;2023-02-10T11:11:33;99165.81;;;-2.69;42.64
65534;BME280;53640;55.838;37.184;2023-02-10T11:14:00;99127.31;;;-2.83;42.03
65534;BME280;53640;55.838;37.184;2023-02-10T11:16:27;99140.28;;;-2.80;43.03
65534;BME280;53640;55.838;37.184;2023-02-10T11:18:57;99145.19;;;-2.66;42.29
65534;BME280;53640;55.838;37.184;2023-02-10T11:21:38;99168.88;;;-2.64;42.47
65534;BME280;53640;55.838;37.184;2023-02-10T11:24:19;99121.75;;;-2.61;42.00
65534;BME280;53640;55.838;37.184;2023-02-10T11:29:32;99064.59;;;-2.92;42.35
65534;BME280;53640;55.838;37.184;2023-02-10T11:32:04;99106.69;;;-2.50;41.47
65534;BME280;53640;55.838;37.184;2023-02-10T11:34:57;99149.22;;;-2.23;43.22
65534;BME280;53640;55.838;37.184;2023-02-10T11:38:07;99048.84;;;-2.65;41.27
65534;BME280;53640;55.838;37.184;2023-02-10T11:41:08;99022.34;;;-2.74;41.23
65534;BME280;53640;55.838;37.184;2023-02-10T11:44:30;99037.22;;;-2.35;41.12
65534;BME280;53640;55.838;37.184;2023-02-10T11:47:12;98965.28;;;-2.49;39.90
65534;BME280;53640;55.838;37.184;2023-02-10T11:50:25;99024.97;;;-1.98;40.33
65534;BME280;53640;55.838;37.184;2023-02-10T11:53:30;99001.31;;;-2.19;39.35
65534;BME280;53640;55.838;37.184;2023-02-10T11:56:07;99103.06;;;-1.18;38.96
65534;BME280;53640;55.838;37.184;2023-02-10T11:59:02;99047.56;;;-1.67;39.52
65534;BME280;53640;55.838;37.184;2023-02-10T12:02:05;98973.19;;;-1.75;39.89
65534;BME280;53640;55.838;37.184;2023-02-10T12:04:56;99053.09;;;-1.05;38.08
65534;BME280;53640;55.838;37.184;2023-02-10T12:07:51;99101.00;;;-0.61;38.42
65534;BME280;53640;55.838;37.184;2023-02-10T12:10:27;99095.53;;;-0.59;38.04
65534;BME280;53640;55.838;37.184;2023-02-10T12:13:14;99009.22;;;-0.91;38.65
65534;BME280;53640;55.838;37.184;2023-02-10T12:18:57;99086.63;;;-0.32;38.13
65534;BME280;53640;55.838;37.184;2023-02-10T12:27:41;99074.72;;;-0.20;39.81
65534;BME280;53640;55.838;37.184;2023-02-10T12:35:38;99079.94;;;-0.37;39.76
65534;BME280;53640;55.838;37.184;2023-02-10T12:44:31;99058.63;;;-0.63;39.15
65534;BME280;53640;55.838;37.184;2023-02-10T12:50:33;99027.78;;;-1.45;39.95
65534;BME280;53640;55.838;37.184;2023-02-10T12:53:29;99051.56;;;-1.53;40.93
65534;BME280;53640;55.838;37.184;2023-02-10T12:58:54;99011.94;;;-1.92;41.75
65534;BME280;53640;55.838;37.184;2023-02-10T13:01:26;98996.34;;;-1.95;41.92
65534;BME280;53640;55.838;37.184;2023-02-10T13:04:16;99042.53;;;-1.97;41.86
65534;BME280;53640;55.838;37.184;2023-02-10T13:09:42;99061.16;;;-2.17;42.74
65534;BME280;53640;55.838;37.184;2023-02-10T13:12:27;99014.56;;;-2.19;42.29
65534;BME280;53640;55.838;37.184;2023-02-10T13:15:01;99002.66;;;-2.52;43.65
65534;BME280;53640;55.838;37.184;2023-02-10T13:17:43;99034.66;;;-2.26;43.08
65534;BME280;53640;55.838;37.184;2023-02-10T13:24:06;98912.03;;;-3.32;43.46
65534;BME280;53640;55.838;37.184;2023-02-10T13:36:18;99045.94;;;-2.81;44.53
65534;BME280;53640;55.838;37.184;2023-02-10T13:39:03;99035.47;;;-2.73;44.12
65534;BME280;53640;55.838;37.184;2023-02-10T13:41:34;99049.84;;;-2.85;44.47
65534;BME280;53640;55.838;37.184;2023-02-10T13:44:27;99014.13;;;-3.20;44.60
65534;BME280;53640;55.838;37.184;2023-02-10T13:52:18;99027.81;;;-2.95;44.98
65534;BME280;53640;55.838;37.184;2023-02-10T13:57:32;99016.38;;;-3.06;45.45
65534;BME280;53640;55.838;37.184;2023-02-10T14:00:26;98983.59;;;-3.43;45.12
65534;BME280;53640;55.838;37.184;2023-02-10T14:06:18;99023.59;;;-2.98;45.86
65534;BME280;53640;55.838;37.184;2023-02-10T14:08:46;98979.44;;;-3.36;45.59
65534;BME280;53640;55.838;37.184;2023-02-10T14:14:03;99031.41;;;-2.87;45.77
65534;BME280;53640;55.838;37.184;2023-02-10T14:16:40;99047.88;;;-2.73;45.30
65534;BME280;53640;55.838;37.184;2023-02-10T14:22:00;99020.25;;;-2.90;45.66
65534;BME280;53640;55.838;37.184;2023-02-10T14:24:30;99030.03;;;-2.81;45.72
65534;BME280;53640;55.838;37.184;2023-02-10T14:27:01;99045.22;;;-2.83;45.40
65534;BME280;53640;55.838;37.184;2023-02-10T14:29:31;99039.91;;;-2.83;45.97
65534;BME280;53640;55.838;37.184;2023-02-10T14:32:00;99037.84;;;-2.70;45.74
65534;BME280;53640;55.838;37.184;2023-02-10T14:34:35;99038.78;;;-2.71;45.71
65534;BME280;53640;55.838;37.184;2023-02-10T14:37:24;98967.31;;;-3.10;46.13
65534;BME280;53640;55.838;37.184;2023-02-10T14:40:41;98947.41;;;-3.14;45.29
65534;BME280;53640;55.838;37.184;2023-02-10T14:43:31;98869.03;;;-3.63;45.78
65534;BME280;53640;55.838;37.184;2023-02-10T14:46:26;98953.56;;;-3.23;45.18
65534;BME280;53640;55.838;37.184;2023-02-10T14:49:10;98938.91;;;-3.46;46.20
65534;BME280;53640;55.838;37.184;2023-02-10T14:51:55;98980.44;;;-3.18;46.23
65534;BME280;53640;55.838;37.184;2023-02-10T14:54:35;99046.19;;;-2.65;45.92
65534;BME280;53640;55.838;37.184;2023-02-10T14:57:11;98987.13;;;-3.04;46.31
65534;BME280;53640;55.838;37.184;2023-02-10T14:59:39;99009.94;;;-2.93;46.08
65534;BME280;53640;55.838;37.184;2023-02-10T15:02:16;99016.91;;;-2.83;46.47
65534;BME280;53640;55.838;37.184;2023-02-10T15:04:44;99055.78;;;-2.54;46.98
65534;BME280;53640;55.838;37.184;2023-02-10T15:07:17;98935.69;;;-3.21;46.50
65534;BME280;53640;55.838;37.184;2023-02-10T15:09:46;99049.66;;;-2.54;46.59